createdAt,value
2017-08-09T00:01:08.252Z,20.50
2017-08-09T00:03:36.432Z,20.50
2017-08-09T00:06:04.685Z,20.30
2017-08-09T00:08:34.419Z,20.30
2017-08-09T00:11:04.259Z,20.30
2017-08-09T00:13:33.194Z,20.20
2017-08-09T00:16:01.416Z,20.20
2017-08-09T00:18:29.646Z,20.20
2017-08-09T00:20:57.868Z,20.30
2017-08-09T00:23:26.020Z,20.30
2017-08-09T00:25:54.254Z,20.20
2017-08-09T00:28:22.504Z,20.30
2017-08-09T00:30:50.648Z,20.30
2017-08-09T00:33:18.795Z,20.30
2017-08-09T00:35:47.383Z,20.20
2017-08-09T00:38:15.544Z,20.20
2017-08-09T00:40:43.686Z,20.10
2017-08-09T00:43:11.844Z,20.20
2017-08-09T00:45:39.976Z,20.20
2017-08-09T00:48:08.461Z,20.20
2017-08-09T00:50:36.591Z,20.20
2017-08-09T00:53:04.979Z,20.10
2017-08-09T00:55:33.152Z,20.20
2017-08-09T00:58:01.287Z,20.10
2017-08-09T01:00:29.442Z,20.10
2017-08-09T01:02:57.581Z,20.00
2017-08-09T01:05:25.719Z,20.00
2017-08-09T01:07:53.865Z,20.00
2017-08-09T01:10:22.777Z,20.00
2017-08-09T01:12:50.942Z,20.00
2017-08-09T01:15:19.094Z,20.10
2017-08-09T01:17:47.984Z,20.00
2017-08-09T01:20:16.234Z,19.90
2017-08-09T01:22:44.406Z,20.00
2017-08-09T01:25:12.616Z,19.90
2017-08-09T01:27:40.776Z,20.00
2017-08-09T01:30:09.052Z,20.00
2017-08-09T01:32:37.312Z,20.00
2017-08-09T01:35:05.485Z,20.00
2017-08-09T01:37:33.633Z,20.00
2017-08-09T01:40:02.565Z,19.80
2017-08-09T01:42:30.794Z,19.70
2017-08-09T01:44:59.686Z,19.80
2017-08-09T01:47:27.912Z,19.80
2017-08-09T01:49:56.097Z,19.80
2017-08-09T01:52:24.315Z,19.80
2017-08-09T01:54:52.438Z,19.90
2017-08-09T01:57:20.568Z,19.90
2017-08-09T01:59:49.104Z,19.90
2017-08-09T02:02:17.513Z,19.90
2017-08-09T02:04:45.668Z,19.90
2017-08-09T02:07:13.814Z,19.80
2017-08-09T02:09:41.948Z,19.70
2017-08-09T02:12:10.118Z,19.70
2017-08-09T02:14:38.240Z,19.70
2017-08-09T02:17:06.637Z,19.70
2017-08-09T02:19:35.512Z,19.70
2017-08-09T02:22:03.851Z,19.70
2017-08-09T02:24:32.050Z,19.60
2017-08-09T02:27:00.194Z,19.60
2017-08-09T02:29:28.371Z,19.60
2017-08-09T02:31:56.478Z,19.60
2017-08-09T02:34:24.618Z,19.70
2017-08-09T02:36:52.788Z,19.70
2017-08-09T02:39:20.964Z,19.60
2017-08-09T02:41:49.946Z,19.60
2017-08-09T02:44:18.088Z,19.50
2017-08-09T02:46:46.269Z,19.60
2017-08-09T02:49:14.417Z,19.50
2017-08-09T02:51:42.566Z,19.60
2017-08-09T02:54:10.738Z,19.50
2017-08-09T02:56:38.884Z,19.50
2017-08-09T02:59:08.156Z,19.40
2017-08-09T03:01:36.319Z,19.40
2017-08-09T03:04:04.543Z,19.50
2017-08-09T03:06:32.736Z,19.40
2017-08-09T03:09:00.912Z,19.40
2017-08-09T03:11:29.857Z,19.30
2017-08-09T03:13:58.008Z,19.30
2017-08-09T03:16:26.958Z,19.30
2017-08-09T03:18:55.161Z,19.20
2017-08-09T03:21:23.426Z,19.30
2017-08-09T03:23:52.712Z,19.30
2017-08-09T03:26:20.899Z,19.20
2017-08-09T03:28:49.074Z,19.10
2017-08-09T03:31:18.034Z,19.00
2017-08-09T03:33:46.224Z,19.00
2017-08-09T03:36:14.406Z,19.00
2017-08-09T03:38:42.549Z,19.00
2017-08-09T03:41:10.705Z,18.90
2017-08-09T03:43:38.834Z,18.80
2017-08-09T03:46:07.028Z,18.90
2017-08-09T03:48:35.194Z,18.90
2017-08-09T03:51:04.178Z,18.90
2017-08-09T03:53:32.406Z,18.80
2017-08-09T03:56:00.583Z,18.90
2017-08-09T03:58:28.790Z,18.80
2017-08-09T04:00:57.699Z,18.70
2017-08-09T04:03:25.866Z,18.70
2017-08-09T04:05:54.046Z,18.70
2017-08-09T04:08:22.223Z,18.70
2017-08-09T04:10:50.492Z,18.60
2017-08-09T04:13:18.671Z,18.60
2017-08-09T04:15:46.974Z,18.50
2017-08-09T04:18:15.171Z,18.50
2017-08-09T04:20:43.304Z,18.50
2017-08-09T04:23:11.516Z,18.50
2017-08-09T04:25:39.654Z,18.40
2017-08-09T04:28:07.814Z,18.50
2017-08-09T04:30:35.965Z,18.30
2017-08-09T04:33:04.143Z,18.30
2017-08-09T04:35:33.142Z,18.20
2017-08-09T04:38:01.415Z,18.20
2017-08-09T04:40:29.664Z,18.20
2017-08-09T04:42:57.856Z,18.20
2017-08-09T04:45:26.290Z,18.10
2017-08-09T04:47:54.503Z,18.10
2017-08-09T04:50:22.714Z,18.20
2017-08-09T04:52:51.340Z,18.00
2017-08-09T04:55:19.508Z,18.00
2017-08-09T04:57:47.647Z,18.00
2017-08-09T05:00:15.785Z,17.90
2017-08-09T05:02:44.573Z,17.90
2017-08-09T05:05:12.784Z,17.80
2017-08-09T05:07:40.996Z,17.70
2017-08-09T05:10:09.259Z,17.70
2017-08-09T05:12:37.405Z,17.60
2017-08-09T05:15:05.542Z,17.70
2017-08-09T05:17:33.739Z,17.70
2017-08-09T05:20:01.912Z,17.80
2017-08-09T05:22:30.087Z,17.80
2017-08-09T05:24:58.215Z,17.80
2017-08-09T05:27:26.359Z,17.80
2017-08-09T05:29:54.564Z,17.90
2017-08-09T05:32:22.736Z,17.90
2017-08-09T05:34:50.913Z,18.00
2017-08-09T05:37:19.823Z,18.00
2017-08-09T05:39:48.003Z,18.00
2017-08-09T05:42:16.972Z,18.00
2017-08-09T05:44:45.938Z,18.00
2017-08-09T05:47:14.124Z,18.10
2017-08-09T05:49:42.325Z,18.10
2017-08-09T05:52:11.425Z,18.10
2017-08-09T05:54:39.600Z,18.10
2017-08-09T05:57:07.796Z,18.10
2017-08-09T05:59:35.979Z,18.20
2017-08-09T06:02:04.156Z,18.10
2017-08-09T06:04:32.529Z,18.20
2017-08-09T06:07:01.491Z,18.30
2017-08-09T06:09:29.764Z,18.30
2017-08-09T06:11:58.053Z,18.30
2017-08-09T06:14:27.042Z,18.30
2017-08-09T06:16:56.030Z,18.40
2017-08-09T06:19:24.208Z,18.40
2017-08-09T06:21:53.172Z,18.50
2017-08-09T06:24:22.030Z,18.40
2017-08-09T06:26:50.163Z,18.60
2017-08-09T06:29:18.337Z,18.70
2017-08-09T06:31:46.520Z,18.70
2017-08-09T06:34:14.874Z,18.80
2017-08-09T06:36:43.892Z,18.90
2017-08-09T06:39:12.105Z,18.70
2017-08-09T06:41:40.294Z,19.00
2017-08-09T06:44:08.454Z,19.00
2017-08-09T06:46:36.619Z,19.20
2017-08-09T06:49:04.746Z,19.20
2017-08-09T06:51:32.894Z,19.30
2017-08-09T06:54:01.669Z,19.30
2017-08-09T06:56:29.986Z,19.10
2017-08-09T06:58:58.162Z,19.00
2017-08-09T07:01:26.329Z,19.10
2017-08-09T07:03:54.732Z,19.20
2017-08-09T07:06:22.913Z,19.50
2017-08-09T07:08:51.830Z,19.30
2017-08-09T07:11:20.051Z,19.30
2017-08-09T07:13:48.962Z,19.70
2017-08-09T07:16:17.139Z,19.70
2017-08-09T07:18:45.260Z,19.80
2017-08-09T07:21:13.792Z,19.40
2017-08-09T07:23:41.965Z,19.50
2017-08-09T07:26:10.162Z,19.90
2017-08-09T07:28:39.204Z,20.20
2017-08-09T07:31:07.351Z,20.10
2017-08-09T07:33:35.500Z,20.50
2017-08-09T07:36:03.643Z,20.30
2017-08-09T07:38:31.797Z,20.30
2017-08-09T07:41:00.112Z,20.60
2017-08-09T07:43:28.284Z,21.00
2017-08-09T07:45:56.420Z,21.10
2017-08-09T07:48:24.577Z,21.00
2017-08-09T07:50:52.711Z,21.20
2017-08-09T07:53:20.889Z,21.10
2017-08-09T07:55:49.198Z,21.20
2017-08-09T07:58:17.324Z,21.30
2017-08-09T08:00:45.566Z,21.50
2017-08-09T08:03:13.685Z,22.00
2017-08-09T08:05:41.862Z,22.00
2017-08-09T08:08:09.998Z,22.40
2017-08-09T08:10:38.142Z,22.20
2017-08-09T08:13:07.064Z,21.60
2017-08-09T08:15:35.196Z,21.50
2017-08-09T08:18:03.366Z,21.80
2017-08-09T08:20:31.491Z,22.00
2017-08-09T08:22:59.709Z,22.20
2017-08-09T08:25:28.629Z,22.80
2017-08-09T08:27:56.798Z,22.70
2017-08-09T08:30:24.998Z,22.90
2017-08-09T08:32:53.128Z,23.30
2017-08-09T08:35:21.269Z,23.30
2017-08-09T08:37:49.412Z,23.60
2017-08-09T08:40:18.512Z,24.10
2017-08-09T08:42:46.662Z,24.00
2017-08-09T08:45:14.820Z,24.40
2017-08-09T08:47:43.009Z,24.70
2017-08-09T08:50:11.171Z,24.70
2017-08-09T08:52:39.305Z,25.20
2017-08-09T08:55:07.465Z,24.80
2017-08-09T08:57:35.620Z,24.30
2017-08-09T09:00:03.779Z,24.50
2017-08-09T09:02:32.304Z,24.60
2017-08-09T09:05:00.431Z,24.50
2017-08-09T09:07:28.633Z,24.50
2017-08-09T09:09:56.745Z,24.40
2017-08-09T09:12:24.944Z,24.80
2017-08-09T09:14:53.062Z,25.60
2017-08-09T09:17:21.226Z,25.90
2017-08-09T09:19:49.380Z,25.60
2017-08-09T09:22:17.520Z,25.70
2017-08-09T09:24:45.744Z,26.10
2017-08-09T09:27:14.608Z,26.20
2017-08-09T09:29:42.778Z,26.10
2017-08-09T09:32:10.920Z,26.20
2017-08-09T09:34:39.101Z,26.40
2017-08-09T09:37:08.145Z,26.10
2017-08-09T09:39:37.110Z,25.90
2017-08-09T09:42:05.265Z,25.90
2017-08-09T09:44:33.403Z,26.60
2017-08-09T09:47:01.660Z,26.90
2017-08-09T09:49:29.810Z,27.10
2017-08-09T09:51:58.021Z,27.20
2017-08-09T09:54:26.150Z,27.20
2017-08-09T09:56:54.270Z,27.00
2017-08-09T09:59:22.446Z,27.30
2017-08-09T10:01:50.590Z,27.50
2017-08-09T10:04:18.806Z,27.30
2017-08-09T10:06:46.948Z,27.30
2017-08-09T10:09:15.831Z,27.60
2017-08-09T10:11:43.998Z,27.50
2017-08-09T10:14:12.141Z,27.90
2017-08-09T10:16:40.273Z,27.60
2017-08-09T10:19:08.434Z,27.50
2017-08-09T10:21:36.578Z,27.70
2017-08-09T10:24:04.764Z,28.20
2017-08-09T10:26:32.937Z,27.70
2017-08-09T10:29:01.117Z,27.70
2017-08-09T10:31:29.329Z,28.00
2017-08-09T10:33:57.546Z,28.20
2017-08-09T10:36:25.701Z,27.90
2017-08-09T10:38:54.944Z,28.00
2017-08-09T10:41:23.141Z,28.60
2017-08-09T10:43:51.344Z,28.50
2017-08-09T10:46:19.597Z,27.60
2017-08-09T10:48:47.766Z,27.40
2017-08-09T10:51:16.094Z,28.00
2017-08-09T10:53:44.371Z,28.40
2017-08-09T10:56:12.565Z,28.00
2017-08-09T10:58:40.710Z,28.50
2017-08-09T11:01:08.921Z,28.30
2017-08-09T11:03:37.108Z,27.80
2017-08-09T11:06:05.316Z,27.90
2017-08-09T11:08:34.496Z,27.80
2017-08-09T11:11:02.915Z,28.00
2017-08-09T11:13:31.114Z,28.20
2017-08-09T11:15:59.332Z,27.90
2017-08-09T11:18:27.511Z,28.00
2017-08-09T11:20:55.668Z,27.20
2017-08-09T11:23:23.810Z,27.10
2017-08-09T11:25:51.986Z,27.00
2017-08-09T11:28:21.021Z,26.70
2017-08-09T11:30:50.112Z,25.40
2017-08-09T11:33:18.321Z,25.40
2017-08-09T11:35:46.478Z,25.60
2017-08-09T11:38:14.665Z,25.70
2017-08-09T11:40:43.169Z,25.70
2017-08-09T11:43:11.376Z,25.70
2017-08-09T11:45:39.697Z,25.90
2017-08-09T11:48:07.927Z,26.30
2017-08-09T11:50:36.914Z,26.90
2017-08-09T11:53:05.082Z,26.80
2017-08-09T11:55:34.316Z,27.20
2017-08-09T11:58:02.511Z,27.20
2017-08-09T12:00:30.651Z,27.40
2017-08-09T12:02:59.606Z,27.80
2017-08-09T12:05:27.753Z,27.80
2017-08-09T12:07:55.893Z,27.60
2017-08-09T12:10:24.072Z,27.90
2017-08-09T12:12:52.222Z,27.70
2017-08-09T12:15:20.421Z,27.30
2017-08-09T12:17:48.600Z,27.70
2017-08-09T12:20:16.772Z,27.80
2017-08-09T12:22:45.004Z,27.20
2017-08-09T12:25:14.751Z,26.10
2017-08-09T12:27:43.048Z,26.10
2017-08-09T12:30:11.388Z,26.40
2017-08-09T12:32:39.652Z,27.00
2017-08-09T12:35:09.790Z,26.80
2017-08-09T12:37:38.931Z,26.50
2017-08-09T12:40:07.198Z,26.10
2017-08-09T12:42:35.378Z,25.90
2017-08-09T12:45:03.593Z,26.30
2017-08-09T12:47:31.764Z,26.70
2017-08-09T12:50:00.483Z,27.10
2017-08-09T12:52:28.676Z,27.10
2017-08-09T12:54:57.708Z,27.60
2017-08-09T12:57:26.284Z,27.50
2017-08-09T12:59:58.896Z,27.00
2017-08-09T13:02:27.045Z,26.90
2017-08-09T13:04:55.183Z,26.80
2017-08-09T13:07:24.148Z,26.20
2017-08-09T13:09:52.277Z,26.20
2017-08-09T13:12:20.449Z,26.00
2017-08-09T13:14:48.624Z,25.80
2017-08-09T13:17:16.831Z,25.80
2017-08-09T13:19:44.989Z,25.40
2017-08-09T13:22:13.148Z,25.60
2017-08-09T13:24:42.057Z,25.70
2017-08-09T13:27:10.188Z,25.60
2017-08-09T13:29:38.352Z,25.50
2017-08-09T13:32:06.518Z,25.50
2017-08-09T13:34:34.700Z,25.30
2017-08-09T13:37:02.844Z,25.20
2017-08-09T13:39:31.008Z,25.30
2017-08-09T13:41:59.160Z,25.20
2017-08-09T13:44:27.370Z,25.30
2017-08-09T13:46:55.538Z,25.40
2017-08-09T13:49:23.719Z,25.30
2017-08-09T13:51:52.686Z,25.50
2017-08-09T13:54:20.856Z,25.40
2017-08-09T13:56:49.036Z,25.30
2017-08-09T13:59:17.252Z,25.30
2017-08-09T14:01:45.583Z,25.30
2017-08-09T14:04:13.800Z,25.30
2017-08-09T14:06:42.022Z,25.30
2017-08-09T14:09:10.592Z,25.20
2017-08-09T14:11:38.838Z,25.30
2017-08-09T14:14:07.029Z,25.40
2017-08-09T14:16:35.217Z,25.40
2017-08-09T14:19:03.386Z,25.40
2017-08-09T14:21:31.554Z,25.40
2017-08-09T14:24:00.256Z,25.40
2017-08-09T14:26:29.033Z,25.10
2017-08-09T14:28:57.184Z,25.20
2017-08-09T14:31:25.353Z,25.20
2017-08-09T14:33:53.578Z,25.20
2017-08-09T14:36:21.809Z,25.10
2017-08-09T14:38:50.777Z,24.90
2017-08-09T14:41:18.959Z,24.80
2017-08-09T14:43:47.116Z,24.90
2017-08-09T14:46:15.341Z,24.80
2017-08-09T14:48:43.570Z,24.80
2017-08-09T14:51:11.735Z,24.70
2017-08-09T14:53:39.851Z,24.70
2017-08-09T14:56:08.020Z,24.70
2017-08-09T14:58:36.188Z,24.80
2017-08-09T15:01:04.319Z,24.80
2017-08-09T15:03:32.615Z,24.90
2017-08-09T15:06:01.554Z,25.10
2017-08-09T15:08:29.719Z,25.20
2017-08-09T15:10:58.183Z,25.10
2017-08-09T15:13:26.612Z,25.20
2017-08-09T15:15:54.838Z,25.00
2017-08-09T15:18:23.019Z,25.00
2017-08-09T15:20:51.282Z,25.00
2017-08-09T15:23:19.433Z,24.80
2017-08-09T15:25:48.353Z,24.60
2017-08-09T15:28:17.344Z,24.60
2017-08-09T15:30:45.583Z,24.60
2017-08-09T15:33:13.789Z,24.80
2017-08-09T15:35:42.209Z,24.90
2017-08-09T15:38:11.134Z,24.90
2017-08-09T15:40:39.282Z,24.90
2017-08-09T15:43:07.434Z,25.00
2017-08-09T15:45:35.668Z,25.00
2017-08-09T15:48:03.866Z,25.00
2017-08-09T15:50:32.059Z,24.90
2017-08-09T15:53:01.056Z,24.80
2017-08-09T15:55:29.240Z,24.80
2017-08-09T15:57:57.463Z,24.80
2017-08-09T16:00:25.679Z,24.80
2017-08-09T16:02:53.897Z,24.90
2017-08-09T16:05:22.075Z,24.70
2017-08-09T16:07:50.196Z,24.80
2017-08-09T16:10:18.378Z,24.70
2017-08-09T16:12:46.616Z,24.60
2017-08-09T16:15:14.821Z,24.60
2017-08-09T16:17:43.135Z,24.60
2017-08-09T16:20:11.295Z,24.50
2017-08-09T16:22:40.244Z,24.50
2017-08-09T16:25:08.397Z,24.40
2017-08-09T16:27:36.697Z,24.50
2017-08-09T16:30:04.912Z,24.40
2017-08-09T16:32:33.161Z,24.40
2017-08-09T16:35:01.705Z,24.40
2017-08-09T16:37:29.914Z,24.50
2017-08-09T16:42:54.658Z,24.30
2017-08-09T16:45:42.279Z,24.30
2017-08-09T16:48:14.603Z,24.20
2017-08-09T16:50:43.184Z,24.30
2017-08-09T16:53:11.484Z,24.20
2017-08-09T16:55:39.793Z,24.10
2017-08-09T16:58:07.932Z,24.10
2017-08-09T17:00:36.306Z,24.00
2017-08-09T17:03:05.312Z,23.80
2017-08-09T17:05:33.502Z,23.80
2017-08-09T17:08:02.448Z,23.80
2017-08-09T17:10:30.549Z,23.70
2017-08-09T17:12:58.737Z,23.80
2017-08-09T17:15:27.788Z,23.80
2017-08-09T17:17:55.930Z,23.70
2017-08-09T17:20:24.127Z,23.70
2017-08-09T17:22:53.331Z,23.60
2017-08-09T17:25:21.455Z,23.60
2017-08-09T17:27:49.646Z,23.60
2017-08-09T17:30:17.807Z,23.60
2017-08-09T17:32:45.925Z,23.50
2017-08-09T17:35:14.088Z,23.50
2017-08-09T17:37:42.226Z,23.50
2017-08-09T17:40:10.385Z,23.40
2017-08-09T17:42:38.517Z,23.40
2017-08-09T17:45:06.913Z,23.40
2017-08-09T17:47:35.166Z,23.40
2017-08-09T17:50:03.361Z,23.30
2017-08-09T17:52:31.887Z,23.20
2017-08-09T17:55:00.206Z,23.20
2017-08-09T17:57:28.527Z,23.20
2017-08-09T17:59:56.707Z,23.20
2017-08-09T18:02:25.076Z,23.10
2017-08-09T18:04:55.606Z,23.10
2017-08-09T18:07:24.527Z,23.10
2017-08-09T18:09:52.833Z,23.00
2017-08-09T18:12:21.025Z,23.00
2017-08-09T18:14:49.143Z,23.00
2017-08-09T18:17:17.861Z,22.90
2017-08-09T18:19:46.032Z,22.90
2017-08-09T18:22:14.204Z,22.90
2017-08-09T18:24:43.136Z,22.80
2017-08-09T18:27:11.925Z,22.80
2017-08-09T18:29:40.085Z,22.70
2017-08-09T18:32:08.232Z,22.60
2017-08-09T18:34:36.397Z,22.50
2017-08-09T18:37:04.553Z,22.50
2017-08-09T18:39:32.751Z,22.50
2017-08-09T18:42:00.894Z,22.50
2017-08-09T18:44:29.079Z,22.40
2017-08-09T18:46:57.245Z,22.40
2017-08-09T18:49:25.451Z,22.40
2017-08-09T18:51:53.584Z,22.20
2017-08-09T18:54:21.771Z,22.10
2017-08-09T18:56:50.860Z,22.10
2017-08-09T18:59:19.755Z,22.10
2017-08-09T19:01:47.960Z,22.00
2017-08-09T19:04:16.128Z,22.00
2017-08-09T19:06:44.385Z,21.90
2017-08-09T19:09:12.587Z,21.80
2017-08-09T19:11:40.873Z,21.80
2017-08-09T19:14:10.059Z,21.80
2017-08-09T19:16:38.444Z,21.70
2017-08-09T19:19:06.594Z,21.70
2017-08-09T19:21:34.817Z,21.60
2017-08-09T19:24:03.079Z,21.60
2017-08-09T19:26:32.161Z,21.50
2017-08-09T19:29:00.332Z,21.50
2017-08-09T19:31:28.511Z,21.50
2017-08-09T19:33:56.677Z,21.40
2017-08-09T19:36:25.680Z,21.40
2017-08-09T19:38:53.846Z,21.30
2017-08-09T19:41:22.114Z,21.30
2017-08-09T19:43:50.432Z,21.30
2017-08-09T19:46:18.601Z,21.20
2017-08-09T19:48:47.956Z,21.20
2017-08-09T19:51:16.129Z,21.10
2017-08-09T19:53:46.293Z,21.10
2017-08-09T19:56:19.375Z,21.10
2017-08-09T19:58:49.545Z,21.00
2017-08-09T20:01:19.216Z,20.90
2017-08-09T20:03:47.623Z,20.90
2017-08-09T20:06:15.787Z,20.80
2017-08-09T20:08:45.835Z,20.80
2017-08-09T20:11:14.173Z,20.70
2017-08-09T20:13:43.786Z,20.70
2017-08-09T20:16:13.848Z,20.70
2017-08-09T20:18:43.299Z,20.60
2017-08-09T20:21:16.029Z,20.60
2017-08-09T20:23:48.675Z,20.50
2017-08-09T20:26:17.777Z,20.40
2017-08-09T20:28:46.110Z,20.50
2017-08-09T20:31:14.820Z,20.40
2017-08-09T20:33:43.450Z,20.30
2017-08-09T20:36:11.700Z,20.20
2017-08-09T20:38:40.135Z,20.10
2017-08-09T20:41:08.764Z,20.00
2017-08-09T20:43:37.657Z,19.90
2017-08-09T20:46:06.945Z,19.90
2017-08-09T20:48:36.132Z,19.90
2017-08-09T20:51:04.556Z,19.80
2017-08-09T20:53:33.422Z,19.80
2017-08-09T20:56:03.160Z,19.50
2017-08-09T20:58:31.347Z,19.50
2017-08-09T21:00:59.538Z,19.40
2017-08-09T21:03:27.768Z,19.40
2017-08-09T21:05:56.828Z,19.50
2017-08-09T21:08:25.081Z,19.40
2017-08-09T21:10:53.620Z,19.40
2017-08-09T21:13:22.674Z,19.40
2017-08-09T21:15:51.648Z,19.20
2017-08-09T21:18:21.481Z,19.20
2017-08-09T21:20:50.076Z,19.00
2017-08-09T21:23:19.353Z,18.80
2017-08-09T21:25:47.893Z,18.70
2017-08-09T21:28:17.400Z,18.60
2017-08-09T21:30:46.248Z,18.60
2017-08-09T21:33:15.852Z,18.60
2017-08-09T21:35:46.013Z,18.70
2017-08-09T21:38:26.025Z,18.60
2017-08-09T21:40:55.269Z,18.50
2017-08-09T21:43:25.956Z,18.50
2017-08-09T21:45:54.630Z,18.40
2017-08-09T21:48:24.565Z,18.40
2017-08-09T21:50:53.609Z,18.30
2017-08-09T21:53:23.152Z,18.30
2017-08-09T21:55:54.624Z,18.30
2017-08-09T21:58:26.471Z,18.30
2017-08-09T22:00:55.088Z,18.10
2017-08-09T22:03:23.774Z,18.20
2017-08-09T22:05:52.509Z,18.30
2017-08-09T22:08:26.319Z,18.10
2017-08-09T22:11:04.269Z,18.00
2017-08-09T22:13:34.187Z,17.90
2017-08-09T22:16:05.485Z,17.80
2017-08-09T22:18:36.109Z,17.80
2017-08-09T22:21:06.120Z,17.80
2017-08-09T22:23:34.836Z,17.90
2017-08-09T22:26:04.491Z,18.00
2017-08-09T22:28:34.428Z,17.90
2017-08-09T22:31:04.487Z,17.90
2017-08-09T22:33:33.751Z,17.90
2017-08-09T22:36:05.286Z,17.80
2017-08-09T22:38:33.809Z,17.70
2017-08-09T22:41:02.371Z,17.60
2017-08-09T22:43:31.151Z,17.50
2017-08-09T22:46:03.344Z,17.50
2017-08-09T22:48:34.492Z,17.40
2017-08-09T22:51:05.630Z,17.30
2017-08-09T22:53:35.760Z,17.40
2017-08-09T22:56:06.253Z,17.40
2017-08-09T22:58:35.047Z,17.40
2017-08-09T23:01:07.318Z,17.30
2017-08-09T23:03:37.877Z,17.10
2017-08-09T23:06:08.160Z,17.10
2017-08-09T23:08:37.129Z,17.10
2017-08-09T23:11:08.296Z,17.00
2017-08-09T23:13:38.423Z,17.00
2017-08-09T23:16:06.630Z,16.90
2017-08-09T23:18:36.537Z,16.80
2017-08-09T23:21:07.442Z,16.80
2017-08-09T23:23:35.965Z,16.60
2017-08-09T23:26:04.527Z,16.70
2017-08-09T23:28:34.526Z,16.80
2017-08-09T23:31:03.367Z,16.70
2017-08-09T23:33:32.321Z,16.60
2017-08-09T23:36:02.424Z,16.50
2017-08-09T23:38:31.062Z,16.60
2017-08-09T23:41:00.209Z,16.50
2017-08-09T23:43:28.556Z,16.50
2017-08-09T23:45:56.777Z,16.40
2017-08-09T23:48:25.382Z,16.30
2017-08-09T23:50:54.222Z,16.30
2017-08-09T23:53:23.301Z,16.30
2017-08-09T23:55:51.705Z,16.20
2017-08-09T23:58:21.626Z,16.20
